Buoy 46562

sailwx.info

Track history (hours):
 
Tides and Currents Weather Stations Pressure Air Temp Water Temp Dewpoint Dewpoint Depression Visibility Wind Speed Wind Dir Waves Ship Positions

Drifting buoy 46562

Last reported at 2014-Oct-24 13:00 UTC. Time now 2014-Oct-24 14:42 UTC.
Position N 54°53' W 155°20'.

Water temperature 9.2 ° C

Date/timePositionNaut miles runAvg speedWind from/ knotsBaromVisibWave heightAir tempDewpointWater temp
2014-Oct-24 13:00N 54°53' W 155°20'0 0.0 9.2
2014-Oct-24 11:00N 54°53' W 155°20'1 0.4 9.2
2014-Oct-24 08:00N 54°54' W 155°20'1 0.8 9.2
2014-Oct-24 07:00N 54°54' W 155°18'0 0.0 9.2
2014-Oct-24 06:00N 54°54' W 155°18'0 0.4 9.2
2014-Oct-24 05:00N 54°55' W 155°19'0 0.0 9.2
2014-Oct-24 04:00N 54°55' W 155°19'2 2.2 9.3
2014-Oct-24 03:00N 54°57' W 155°17'0 0.0 9.3
2014-Oct-24 02:00N 54°57' W 155°17'1 0.7 9.3
2014-Oct-24 01:00N 54°57' W 155°18'2 1.1 9.3
2014-Oct-23 23:00N 54°59' W 155°16'0 0.0 9.3
2014-Oct-23 22:00N 54°59' W 155°16'4 1.8 9.4
2014-Oct-23 20:00N 55°02' W 155°13'0 0.0 9.3
2014-Oct-23 17:00N 55°02' W 155°13'4 2.1 9.3
2014-Oct-23 15:00N 55°06' W 155°10'0 0.0 9.3
2014-Oct-23 14:00N 55°06' W 155°10'3 2.7 9.3
2014-Oct-23 13:00N 55°09' W 155°09'5 2.7 9.3
2014-Oct-23 11:00N 55°13' W 155°04'0 0.0 9.2
2014-Oct-23 07:00N 55°13' W 155°04'2 2.0 9.2
2014-Oct-23 06:00N 55°15' W 155°03'3 2.8 9.1
2014-Oct-23 05:00N 55°18' W 155°00'0 0.0 9.0
2014-Oct-23 04:00N 55°18' W 155°00'0 0.0 8.9
2014-Oct-23 03:00N 55°18' W 155°00'5 2.4 8.8
2014-Oct-23 01:00N 55°22' W 154°55'0 0.2 8.8
2014-Oct-23 00:00N 55°21' W 154°56'0 0.0 8.8
2014-Oct-22 23:00N 55°21' W 154°55'3 2.8 8.8
2014-Oct-22 22:00N 55°23' W 154°52'6 1.9 8.9
2014-Oct-22 19:00N 55°29' W 154°47'1 0.4 8.9
2014-Oct-22 16:00N 55°30' W 154°47'1 1.1 8.8
2014-Oct-22 15:00N 55°31' W 154°46'1 0.4 8.9
2014-Oct-22 13:00N 55°31' W 154°47'2 2.0 9.0
2014-Oct-22 12:00N 55°32' W 154°44'0 0.0 9.0
2014-Oct-22 11:00N 55°32' W 154°44'3 0.9 9.0
2014-Oct-22 07:00N 55°35' W 154°40'1 1.4 9.0
2014-Oct-22 06:00N 55°35' W 154°38'0 0.0 9.0
2014-Oct-22 04:00N 55°35' W 154°38'0 0.5 9.1
2014-Oct-22 03:00N 55°35' W 154°37'4 1.8 9.1
2014-Oct-22 01:00N 55°37' W 154°31'0 0.1 9.3
2014-Oct-22 00:00N 55°37' W 154°31'1 1.0 9.3
2014-Oct-21 23:00N 55°37' W 154°29'0 0.0 9.3
2014-Oct-21 22:00N 55°37' W 154°29'4 1.1 9.2
2014-Oct-21 18:00N 55°36' W 154°22'0 0.0 9.0
2014-Oct-21 17:00N 55°36' W 154°22'1 0.5 9.0
2014-Oct-21 16:00N 55°36' W 154°21'1 1.1 9.0
2014-Oct-21 15:00N 55°37' W 154°22'1 1.2 9.0
2014-Oct-21 14:00N 55°36' W 154°20'1 1.3 9.0
2014-Oct-21 13:00N 55°37' W 154°18'3 2.7 8.8
2014-Oct-21 12:00N 55°38' W 154°13'0 0.0 9.0
2014-Oct-21 07:00N 55°38' W 154°13'1 1.0 9.0
2014-Oct-21 06:00N 55°38' W 154°12'1 0.5 9.0
2014-Oct-21 05:00N 55°38' W 154°11'1 0.7 9.0
2014-Oct-21 04:00N 55°38' W 154°09'0 0.0 9.0
2014-Oct-21 03:00N 55°38' W 154°09'0 0.2 9.0
2014-Oct-21 02:00N 55°38' W 154°09'0 0.3 9.1
2014-Oct-21 01:00N 55°37' W 154°10'1 0.9 9.1
2014-Oct-21 00:00N 55°38' W 154°08'2 1.1 9.1
2014-Oct-20 22:00N 55°39' W 154°04'1 0.9 9.1
2014-Oct-20 21:00N 55°39' W 154°03'1 0.9 9.1
2014-Oct-20 20:00N 55°40' W 154°04'2 1.5 9.2
2014-Oct-20 19:00N 55°41' W 154°03'0 0.2 9.2
2014-Oct-20 17:00N 55°42' W 154°03'0 0.4 9.3
2014-Oct-20 16:00N 55°42' W 154°03'1 0.7 9.2
2014-Oct-20 15:00N 55°42' W 154°02'0 0.5 9.2
2014-Oct-20 14:00N 55°43' W 154°01'0 0.0 9.2
2014-Oct-20 13:00N 55°43' W 154°01'2 2.1 9.2
2014-Oct-20 12:00N 55°44' W 153°59'2 2.0 9.2
2014-Oct-20 11:00N 55°43' W 154°01'2 2.0 9.2
2014-Oct-20 10:00N 55°44' W 153°59'0 0.0 9.2
2014-Oct-20 09:00N 55°44' W 153°59'3 0.9 9.4
2014-Oct-20 05:00N 55°46' W 153°54'1 1.1 9.6
2014-Oct-20 04:00N 55°46' W 153°55'0 0.0 9.5
2014-Oct-20 03:00N 55°46' W 153°55'1 0.9 9.5
2014-Oct-20 02:00N 55°47' W 153°55'0 0.1 9.6
2014-Oct-20 01:00N 55°47' W 153°55'1 0.6 9.6
2014-Oct-20 00:00N 55°48' W 153°55'1 0.6 9.6
2014-Oct-19 22:00N 55°48' W 153°53'1 1.2 9.4
2014-Oct-19 21:00N 55°49' W 153°52'1 0.7 9.4
2014-Oct-19 20:00N 55°50' W 153°51'3 1.5 9.3
2014-Oct-19 18:00N 55°52' W 153°47'0 0.0 9.2
2014-Oct-19 17:00N 55°52' W 153°47'1 1.3 9.2
2014-Oct-19 16:00N 55°52' W 153°45'1 0.6 9.2
2014-Oct-19 15:00N 55°53' W 153°44'1 0.6 9.2
2014-Oct-19 14:00N 55°53' W 153°44'1 1.4 8.9
2014-Oct-19 13:00N 55°55' W 153°43'1 1.5 8.9
2014-Oct-19 12:00N 55°56' W 153°42'3 1.7 8.9
2014-Oct-19 10:00N 55°59' W 153°38'2 0.5 9.0
2014-Oct-19 07:00N 55°60' W 153°36'1 0.5 8.8
2014-Oct-19 05:00N 56°00' W 153°34'1 1.3 8.9
2014-Oct-19 04:00N 56°02' W 153°35'0 0.0 9.1
2014-Oct-19 03:00N 56°02' W 153°35'2 1.0 9.1
2014-Oct-19 01:00N 56°04' W 153°33'0 0.2 9.2
2014-Oct-19 00:00N 56°04' W 153°34'1 0.8 9.2
2014-Oct-18 23:00N 56°04' W 153°33'0 0.0 9.2
2014-Oct-18 22:00N 56°04' W 153°33'1 1.1 9.2
2014-Oct-18 21:00N 56°05' W 153°31'1 1.2 9.2
2014-Oct-18 20:00N 56°05' W 153°29'0 0.0 9.2
2014-Oct-18 18:00N 56°05' W 153°29'2 1.6 9.3
2014-Oct-18 17:00N 56°06' W 153°27'0 0.1 9.3
2014-Oct-18 16:00N 56°06' W 153°27'1 0.8 9.3
2014-Oct-18 15:00N 56°06' W 153°26'1 1.1 9.3
2014-Oct-18 14:00N 56°07' W 153°24'1 0.7 9.3
2014-Oct-18 12:00N 56°07' W 153°21'0 0.4 9.3
2014-Oct-18 11:00N 56°07' W 153°22'0 0.0 9.3
2014-Oct-18 10:00N 56°07' W 153°22'2 2.5 9.3
2014-Oct-18 09:00N 56°09' W 153°18'2 0.9 9.2
2014-Oct-18 07:00N 56°09' W 153°15'1 0.4 8.7
2014-Oct-18 05:00N 56°10' W 153°14'1 0.4 8.8
2014-Oct-18 02:00N 56°10' W 153°12'1 0.9 8.4
2014-Oct-18 01:00N 56°10' W 153°10'2 1.7 8.4
2014-Oct-18 00:00N 56°10' W 153°08'1 0.7 8.4
2014-Oct-17 22:00N 56°11' W 153°05'0 0.2 8.3
2014-Oct-17 21:00N 56°11' W 153°05'3 2.7 8.4
2014-Oct-17 20:00N 56°10' W 153°01'0 0.0 8.5
2014-Oct-17 18:00N 56°10' W 153°01'2 1.0 8.5
2014-Oct-17 16:00N 56°10' W 152°57'0 0.3 8.5
2014-Oct-17 15:00N 56°10' W 152°57'1 0.8 8.5
2014-Oct-17 14:00N 56°10' W 152°56'0 0.4 8.5
2014-Oct-17 13:00N 56°10' W 152°56'2 1.6 8.5
2014-Oct-17 12:00N 56°10' W 152°53'0 0.1 8.5
2014-Oct-17 11:00N 56°10' W 152°53'2 0.6 8.7
2014-Oct-17 08:00N 56°09' W 152°50'3 2.5 8.8
2014-Oct-17 07:00N 56°10' W 152°46'0 0.0 8.8
2014-Oct-17 06:00N 56°10' W 152°46'0 0.3 8.8
2014-Oct-17 05:00N 56°09' W 152°46'2 0.6 8.9
2014-Oct-17 02:00N 56°09' W 152°43'1 1.0 9.1
2014-Oct-17 01:00N 56°08' W 152°42'1 0.9 9.2
2014-Oct-17 00:00N 56°08' W 152°40'1 0.6 9.3
2014-Oct-16 23:00N 56°08' W 152°39'0 0.2 9.3
2014-Oct-16 21:00N 56°08' W 152°38'0 0.2 9.4
2014-Oct-16 19:00N 56°08' W 152°38'4 0.5 9.4
2014-Oct-16 12:00N 56°07' W 152°32'5 1.0 9.5
2014-Oct-16 07:00N 56°11' W 152°27'0 0.1 9.3
2014-Oct-16 04:00N 56°11' W 152°27'0 0.2 9.4
2014-Oct-16 03:00N 56°11' W 152°27'1 0.4 9.3
2014-Oct-16 01:00N 56°12' W 152°26'2 0.5 9.2
2014-Oct-15 21:00N 56°14' W 152°24'3 1.1 9.1
2014-Oct-15 18:00N 56°17' W 152°23'0 0.3 8.9
2014-Oct-15 17:00N 56°17' W 152°22'0 0.5 9.0
2014-Oct-15 16:00N 56°17' W 152°23'1 0.9 9.0
2014-Oct-15 15:00N 56°18' W 152°22'1 0.6 9.0
2014-Oct-15 14:00N 56°19' W 152°23'0 0.3 9.0
2014-Oct-15 13:00N 56°19' W 152°22'1 0.3 9.0
2014-Oct-15 11:00N 56°19' W 152°21'5 1.3 8.7
2014-Oct-15 07:00N 56°21' W 152°13'1 1.2 8.7
2014-Oct-15 06:00N 56°22' W 152°11'0 0.0 8.7
2014-Oct-15 05:00N 56°22' W 152°11'3 1.3 8.7
2014-Oct-15 03:00N 56°25' W 152°10'0 0.0 8.7
2014-Oct-15 02:00N 56°25' W 152°10'1 0.9 8.7
2014-Oct-15 01:00N 56°26' W 152°09'0 0.0 8.8
2014-Oct-15 00:00N 56°26' W 152°09'0 0.3 8.9
2014-Oct-14 23:00N 56°25' W 152°10'0 0.2 8.9
2014-Oct-14 22:00N 56°25' W 152°09'3 1.7 8.8
2014-Oct-14 20:00N 56°25' W 152°03'4 0.9 8.7
2014-Oct-14 15:00N 56°29' W 151°58'0 0.2 8.6
2014-Oct-14 14:00N 56°29' W 151°58'2 2.1 8.6
2014-Oct-14 13:00N 56°31' W 151°57'   8.6
Track history (hours):
 
Tides and Currents Weather Stations Pressure Air Temp Water Temp Dewpoint Dewpoint Depression Visibility Wind Speed Wind Dir Waves Ship Positions

Drifting buoy 46562

Last reported at 2014-Oct-24 13:00 UTC. Time now 2014-Oct-24 14:42 UTC.
Position N 54°53' W 155°20'.

Water temperature 9.2 ° C

Date/timePositionNaut miles runAvg speedWind from/ knotsBaromVisibWave heightAir tempDewpointWater temp
2014-Oct-24 13:00N 54°53' W 155°20'0 0.0 9.2
2014-Oct-24 11:00N 54°53' W 155°20'1 0.4 9.2
2014-Oct-24 08:00N 54°54' W 155°20'1 0.8 9.2
2014-Oct-24 07:00N 54°54' W 155°18'0 0.0 9.2
2014-Oct-24 06:00N 54°54' W 155°18'0 0.4 9.2
2014-Oct-24 05:00N 54°55' W 155°19'0 0.0 9.2
2014-Oct-24 04:00N 54°55' W 155°19'2 2.2 9.3
2014-Oct-24 03:00N 54°57' W 155°17'0 0.0 9.3
2014-Oct-24 02:00N 54°57' W 155°17'1 0.7 9.3
2014-Oct-24 01:00N 54°57' W 155°18'2 1.1 9.3
2014-Oct-23 23:00N 54°59' W 155°16'0 0.0 9.3
2014-Oct-23 22:00N 54°59' W 155°16'4 1.8 9.4
2014-Oct-23 20:00N 55°02' W 155°13'0 0.0 9.3
2014-Oct-23 17:00N 55°02' W 155°13'4 2.1 9.3
2014-Oct-23 15:00N 55°06' W 155°10'0 0.0 9.3
2014-Oct-23 14:00N 55°06' W 155°10'3 2.7 9.3
2014-Oct-23 13:00N 55°09' W 155°09'5 2.7 9.3
2014-Oct-23 11:00N 55°13' W 155°04'0 0.0 9.2
2014-Oct-23 07:00N 55°13' W 155°04'2 2.0 9.2
2014-Oct-23 06:00N 55°15' W 155°03'3 2.8 9.1
2014-Oct-23 05:00N 55°18' W 155°00'0 0.0 9.0
2014-Oct-23 04:00N 55°18' W 155°00'0 0.0 8.9
2014-Oct-23 03:00N 55°18' W 155°00'5 2.4 8.8
2014-Oct-23 01:00N 55°22' W 154°55'0 0.2 8.8
2014-Oct-23 00:00N 55°21' W 154°56'0 0.0 8.8
2014-Oct-22 23:00N 55°21' W 154°55'3 2.8 8.8
2014-Oct-22 22:00N 55°23' W 154°52'6 1.9 8.9
2014-Oct-22 19:00N 55°29' W 154°47'1 0.4 8.9
2014-Oct-22 16:00N 55°30' W 154°47'1 1.1 8.8
2014-Oct-22 15:00N 55°31' W 154°46'1 0.4 8.9
2014-Oct-22 13:00N 55°31' W 154°47'2 2.0 9.0
2014-Oct-22 12:00N 55°32' W 154°44'0 0.0 9.0
2014-Oct-22 11:00N 55°32' W 154°44'3 0.9 9.0
2014-Oct-22 07:00N 55°35' W 154°40'1 1.4 9.0
2014-Oct-22 06:00N 55°35' W 154°38'0 0.0 9.0
2014-Oct-22 04:00N 55°35' W 154°38'0 0.5 9.1
2014-Oct-22 03:00N 55°35' W 154°37'4 1.8 9.1
2014-Oct-22 01:00N 55°37' W 154°31'0 0.1 9.3
2014-Oct-22 00:00N 55°37' W 154°31'1 1.0 9.3
2014-Oct-21 23:00N 55°37' W 154°29'0 0.0 9.3
2014-Oct-21 22:00N 55°37' W 154°29'4 1.1 9.2
2014-Oct-21 18:00N 55°36' W 154°22'0 0.0 9.0
2014-Oct-21 17:00N 55°36' W 154°22'1 0.5 9.0
2014-Oct-21 16:00N 55°36' W 154°21'1 1.1 9.0
2014-Oct-21 15:00N 55°37' W 154°22'1 1.2 9.0
2014-Oct-21 14:00N 55°36' W 154°20'1 1.3 9.0
2014-Oct-21 13:00N 55°37' W 154°18'3 2.7 8.8
2014-Oct-21 12:00N 55°38' W 154°13'0 0.0 9.0
2014-Oct-21 07:00N 55°38' W 154°13'1 1.0 9.0
2014-Oct-21 06:00N 55°38' W 154°12'1 0.5 9.0
2014-Oct-21 05:00N 55°38' W 154°11'1 0.7 9.0
2014-Oct-21 04:00N 55°38' W 154°09'0 0.0 9.0
2014-Oct-21 03:00N 55°38' W 154°09'0 0.2 9.0
2014-Oct-21 02:00N 55°38' W 154°09'0 0.3 9.1
2014-Oct-21 01:00N 55°37' W 154°10'1 0.9 9.1
2014-Oct-21 00:00N 55°38' W 154°08'2 1.1 9.1
2014-Oct-20 22:00N 55°39' W 154°04'1 0.9 9.1
2014-Oct-20 21:00N 55°39' W 154°03'1 0.9 9.1
2014-Oct-20 20:00N 55°40' W 154°04'2 1.5 9.2
2014-Oct-20 19:00N 55°41' W 154°03'0 0.2 9.2
2014-Oct-20 17:00N 55°42' W 154°03'0 0.4 9.3
2014-Oct-20 16:00N 55°42' W 154°03'1 0.7 9.2
2014-Oct-20 15:00N 55°42' W 154°02'0 0.5 9.2
2014-Oct-20 14:00N 55°43' W 154°01'0 0.0 9.2
2014-Oct-20 13:00N 55°43' W 154°01'2 2.1 9.2
2014-Oct-20 12:00N 55°44' W 153°59'2 2.0 9.2
2014-Oct-20 11:00N 55°43' W 154°01'2 2.0 9.2
2014-Oct-20 10:00N 55°44' W 153°59'0 0.0 9.2
2014-Oct-20 09:00N 55°44' W 153°59'3 0.9 9.4
2014-Oct-20 05:00N 55°46' W 153°54'1 1.1 9.6
2014-Oct-20 04:00N 55°46' W 153°55'0 0.0 9.5
2014-Oct-20 03:00N 55°46' W 153°55'1 0.9 9.5
2014-Oct-20 02:00N 55°47' W 153°55'0 0.1 9.6
2014-Oct-20 01:00N 55°47' W 153°55'1 0.6 9.6
2014-Oct-20 00:00N 55°48' W 153°55'1 0.6 9.6
2014-Oct-19 22:00N 55°48' W 153°53'1 1.2 9.4
2014-Oct-19 21:00N 55°49' W 153°52'1 0.7 9.4
2014-Oct-19 20:00N 55°50' W 153°51'3 1.5 9.3
2014-Oct-19 18:00N 55°52' W 153°47'0 0.0 9.2
2014-Oct-19 17:00N 55°52' W 153°47'1 1.3 9.2
2014-Oct-19 16:00N 55°52' W 153°45'1 0.6 9.2
2014-Oct-19 15:00N 55°53' W 153°44'1 0.6 9.2
2014-Oct-19 14:00N 55°53' W 153°44'1 1.4 8.9
2014-Oct-19 13:00N 55°55' W 153°43'1 1.5 8.9
2014-Oct-19 12:00N 55°56' W 153°42'3 1.7 8.9
2014-Oct-19 10:00N 55°59' W 153°38'2 0.5 9.0
2014-Oct-19 07:00N 55°60' W 153°36'1 0.5 8.8
2014-Oct-19 05:00N 56°00' W 153°34'1 1.3 8.9
2014-Oct-19 04:00N 56°02' W 153°35'0 0.0 9.1
2014-Oct-19 03:00N 56°02' W 153°35'2 1.0 9.1
2014-Oct-19 01:00N 56°04' W 153°33'0 0.2 9.2
2014-Oct-19 00:00N 56°04' W 153°34'1 0.8 9.2
2014-Oct-18 23:00N 56°04' W 153°33'0 0.0 9.2
2014-Oct-18 22:00N 56°04' W 153°33'1 1.1 9.2
2014-Oct-18 21:00N 56°05' W 153°31'1 1.2 9.2
2014-Oct-18 20:00N 56°05' W 153°29'0 0.0 9.2
2014-Oct-18 18:00N 56°05' W 153°29'2 1.6 9.3
2014-Oct-18 17:00N 56°06' W 153°27'0 0.1 9.3
2014-Oct-18 16:00N 56°06' W 153°27'1 0.8 9.3
2014-Oct-18 15:00N 56°06' W 153°26'1 1.1 9.3
2014-Oct-18 14:00N 56°07' W 153°24'1 0.7 9.3
2014-Oct-18 12:00N 56°07' W 153°21'0 0.4 9.3
2014-Oct-18 11:00N 56°07' W 153°22'0 0.0 9.3
2014-Oct-18 10:00N 56°07' W 153°22'2 2.5 9.3
2014-Oct-18 09:00N 56°09' W 153°18'2 0.9 9.2
2014-Oct-18 07:00N 56°09' W 153°15'1 0.4 8.7
2014-Oct-18 05:00N 56°10' W 153°14'1 0.4 8.8
2014-Oct-18 02:00N 56°10' W 153°12'1 0.9 8.4
2014-Oct-18 01:00N 56°10' W 153°10'2 1.7 8.4
2014-Oct-18 00:00N 56°10' W 153°08'1 0.7 8.4
2014-Oct-17 22:00N 56°11' W 153°05'0 0.2 8.3
2014-Oct-17 21:00N 56°11' W 153°05'3 2.7 8.4
2014-Oct-17 20:00N 56°10' W 153°01'0 0.0 8.5
2014-Oct-17 18:00N 56°10' W 153°01'2 1.0 8.5
2014-Oct-17 16:00N 56°10' W 152°57'0 0.3 8.5
2014-Oct-17 15:00N 56°10' W 152°57'1 0.8 8.5
2014-Oct-17 14:00N 56°10' W 152°56'0 0.4 8.5
2014-Oct-17 13:00N 56°10' W 152°56'2 1.6 8.5
2014-Oct-17 12:00N 56°10' W 152°53'0 0.1 8.5
2014-Oct-17 11:00N 56°10' W 152°53'2 0.6 8.7
2014-Oct-17 08:00N 56°09' W 152°50'3 2.5 8.8
2014-Oct-17 07:00N 56°10' W 152°46'0 0.0 8.8
2014-Oct-17 06:00N 56°10' W 152°46'0 0.3 8.8
2014-Oct-17 05:00N 56°09' W 152°46'2 0.6 8.9
2014-Oct-17 02:00N 56°09' W 152°43'1 1.0 9.1
2014-Oct-17 01:00N 56°08' W 152°42'1 0.9 9.2
2014-Oct-17 00:00N 56°08' W 152°40'1 0.6 9.3
2014-Oct-16 23:00N 56°08' W 152°39'0 0.2 9.3
2014-Oct-16 21:00N 56°08' W 152°38'0 0.2 9.4
2014-Oct-16 19:00N 56°08' W 152°38'4 0.5 9.4
2014-Oct-16 12:00N 56°07' W 152°32'5 1.0 9.5
2014-Oct-16 07:00N 56°11' W 152°27'0 0.1 9.3
2014-Oct-16 04:00N 56°11' W 152°27'0 0.2 9.4
2014-Oct-16 03:00N 56°11' W 152°27'1 0.4 9.3
2014-Oct-16 01:00N 56°12' W 152°26'2 0.5 9.2
2014-Oct-15 21:00N 56°14' W 152°24'3 1.1 9.1
2014-Oct-15 18:00N 56°17' W 152°23'0 0.3 8.9
2014-Oct-15 17:00N 56°17' W 152°22'0 0.5 9.0
2014-Oct-15 16:00N 56°17' W 152°23'1 0.9 9.0
2014-Oct-15 15:00N 56°18' W 152°22'1 0.6 9.0
2014-Oct-15 14:00N 56°19' W 152°23'0 0.3 9.0
2014-Oct-15 13:00N 56°19' W 152°22'1 0.3 9.0
2014-Oct-15 11:00N 56°19' W 152°21'5 1.3 8.7
2014-Oct-15 07:00N 56°21' W 152°13'1 1.2 8.7
2014-Oct-15 06:00N 56°22' W 152°11'0 0.0 8.7
2014-Oct-15 05:00N 56°22' W 152°11'3 1.3 8.7
2014-Oct-15 03:00N 56°25' W 152°10'0 0.0 8.7
2014-Oct-15 02:00N 56°25' W 152°10'1 0.9 8.7
2014-Oct-15 01:00N 56°26' W 152°09'0 0.0 8.8
2014-Oct-15 00:00N 56°26' W 152°09'0 0.3 8.9
2014-Oct-14 23:00N 56°25' W 152°10'0 0.2 8.9
2014-Oct-14 22:00N 56°25' W 152°09'3 1.7 8.8
2014-Oct-14 20:00N 56°25' W 152°03'4 0.9 8.7
2014-Oct-14 15:00N 56°29' W 151°58'0 0.2 8.6
2014-Oct-14 14:00N 56°29' W 151°58'2 2.1 8.6
2014-Oct-14 13:00N 56°31' W 151°57'   8.6

Dump ship's entire track history